Terminal Aerodrome Forecast
Issued by NWS Pittsburgh, PA

Current Version | Previous Version | Text Only | Print | Product List | Glossary On
Versions: 1 2 3 4 5 6 7 8 9 10 11 12 13 14 15 16 17 18 19 20 21 22 23 24 25
000
FTUS41 KPBZ 220854 AAA
TAFPIT
TAF AMD
KPIT 220854Z 2209/2312 25005KT P6SM SCT100
     FM221300 26012KT P6SM VCSH BKN060
     FM221600 30015G25KT P6SM SCT070
     FM230000 34008KT P6SM SKC=

USA.gov is the U.S. government's official web portal to all federal, state and local government web resources and services.